Accueil
METAR-TAF:

METAR-TAF

Aéroports :

Guymon, Oklahoma, États-Unis

latitude: 36-40-54N, longitude: 101-30-19W, altitude: 952 m

Observation

Le bulletin a été fait il y a 1 heure et 12 minutes, à 01:53 UTC
Vent 8 kt de sud/sud-ouest
Température -1°C
Humidité 50%
Pression 1022 hPa
Visibilité: 16.1 km
Ciel clair

METAR: KGUY 110153Z AUTO 20008KT 10SM CLR M01/M10 A3019 RMK AO2 SLP243 T10111100

Heure: 21:05 (03:05 UTC)

Prévision

Le bulletin a été fait il y a 3 heures et 45 minutes, à 23:20 UTC
Prévision valable du 11 à 00 UTC au 11 à 24 UTC
Vent 10 kt de sud/sud-ouest
Visibilité: 10 km
Nuages épars à une hauteur de 25000 ft
A partir de 11 à 1500 UTC
Vent 14 kt de sud-ouest
Visibilité: 10 km
Nuages fragmentés à une hauteur de 20000 ft
A partir de 11 à 2000 UTC
Vent 12 kt de nord
Visibilité: 10 km
Nuages fragmentés à une hauteur de 20000 ft

TAF: KGUY 102320Z 1100/1124 20010KT P6SM SCT250 FM111500 23014KT P6SM BKN200 FM112000 35012KT P6SM BKN200

Observations et prévisions météorologiques de plus de 4000 aéroports (messages METAR et TAF).

Les stations disponibles sont représentées par des disques jaunes et rouges sur la carte.

Passer la souris dessus pour voir le nom de la station.

Cliquer dessus pour voir les observations et prévisions météorologiques.

Pour changer de carte: cliquez sur les boutons verts avec une croix noire pour zoomer, sur le bouton vert avec un tiret pour effectuer un zoom arrière, ou sur les flèches vertes pour les cartes adjacentes.


METAR-TAF: